createdAt,value
2023-02-11T00:01:22.589Z,39.90
2023-02-11T00:03:49.927Z,39.21
2023-02-11T00:06:17.794Z,39.85
2023-02-11T00:08:44.956Z,38.67
2023-02-11T00:11:18.932Z,36.71
2023-02-11T00:13:46.468Z,37.66
2023-02-11T00:16:20.142Z,36.40
2023-02-11T00:18:47.890Z,35.68
2023-02-11T00:21:25.313Z,37.13
2023-02-11T00:23:53.329Z,36.02
2023-02-11T00:26:34.745Z,36.59
2023-02-11T00:29:05.240Z,36.25
2023-02-11T00:31:33.291Z,34.23
2023-02-11T00:34:00.418Z,34.16
2023-02-11T00:36:31.349Z,35.69
2023-02-11T00:39:01.930Z,37.81
2023-02-11T00:41:29.947Z,35.30
2023-02-11T00:43:57.438Z,35.86
2023-02-11T00:46:24.892Z,37.46
2023-02-11T00:48:55.049Z,37.67
2023-02-11T00:51:25.037Z,37.47
2023-02-11T00:53:52.142Z,36.74
2023-02-11T00:56:19.570Z,35.26
2023-02-11T00:58:46.736Z,35.74
2023-02-11T01:01:14.202Z,35.37
2023-02-11T01:03:43.926Z,34.97
2023-02-11T01:06:11.812Z,39.84
2023-02-11T01:08:40.189Z,38.23
2023-02-11T01:11:14.097Z,37.46
2023-02-11T01:13:41.327Z,38.33
2023-02-11T01:16:10.850Z,39.66
2023-02-11T01:18:38.330Z,38.34
2023-02-11T01:21:05.805Z,36.06
2023-02-11T01:23:32.909Z,39.33
2023-02-11T01:26:02.450Z,37.20
2023-02-11T01:28:30.982Z,36.02
2023-02-11T01:31:01.944Z,34.93
2023-02-11T01:33:29.480Z,38.08
2023-02-11T01:36:01.032Z,38.22
2023-02-11T01:38:28.149Z,38.87
2023-02-11T01:41:08.915Z,37.72
2023-02-11T01:43:45.178Z,36.01
2023-02-11T01:46:31.126Z,38.96
2023-02-11T01:49:18.783Z,39.32
2023-02-11T01:51:54.797Z,38.06
2023-02-11T01:54:45.237Z,38.25
2023-02-11T01:57:25.396Z,37.54
2023-02-11T02:00:36.782Z,36.11
2023-02-11T02:03:09.879Z,35.77
2023-02-11T02:06:11.083Z,38.20
2023-02-11T02:09:18.236Z,38.00
2023-02-11T02:11:45.422Z,39.63
2023-02-11T02:14:12.488Z,37.82
2023-02-11T02:16:39.738Z,36.61
2023-02-11T02:20:11.349Z,36.09
2023-02-11T02:23:20.917Z,36.42
2023-02-11T02:26:38.577Z,35.47
2023-02-11T02:29:28.250Z,38.70
2023-02-11T02:32:16.783Z,38.56
2023-02-11T02:35:40.010Z,38.09
2023-02-11T02:38:12.877Z,37.64
2023-02-11T02:40:57.977Z,37.45
2023-02-11T02:43:27.857Z,37.55
2023-02-11T02:45:55.024Z,34.95
2023-02-11T02:48:35.763Z,37.65
2023-02-11T02:51:34.748Z,39.72
2023-02-11T02:54:29.584Z,38.99
2023-02-11T02:57:17.665Z,38.28
2023-02-11T02:59:47.378Z,35.16
2023-02-11T03:02:23.423Z,35.70
2023-02-11T03:05:10.780Z,40.05
2023-02-11T03:07:44.411Z,40.42
2023-02-11T03:10:36.384Z,42.01
2023-02-11T03:13:05.461Z,41.30
2023-02-11T03:15:38.782Z,43.25
2023-02-11T03:18:09.239Z,41.34
2023-02-11T03:20:39.553Z,39.75
2023-02-11T03:23:24.169Z,36.87
2023-02-11T03:26:03.079Z,37.28
2023-02-11T03:28:41.358Z,37.27
2023-02-11T03:31:37.589Z,35.99
2023-02-11T03:34:15.848Z,35.46
2023-02-11T03:37:25.616Z,36.12
2023-02-11T03:40:12.205Z,36.85
2023-02-11T03:43:47.419Z,36.89
2023-02-11T03:46:18.976Z,36.70
2023-02-11T03:48:52.666Z,36.97
2023-02-11T03:51:24.255Z,37.45
2023-02-11T03:53:55.746Z,37.95
2023-02-11T03:56:29.182Z,37.93
2023-02-11T03:58:56.596Z,37.01
2023-02-11T04:01:23.852Z,38.20
2023-02-11T04:03:51.012Z,37.11
2023-02-11T04:06:18.493Z,36.38
2023-02-11T04:08:45.686Z,39.65
2023-02-11T04:11:14.980Z,38.00
2023-02-11T04:13:44.781Z,36.44
2023-02-11T04:16:11.967Z,37.68
2023-02-11T04:18:39.078Z,40.10
2023-02-11T04:21:06.345Z,40.05
2023-02-11T04:23:33.505Z,37.73
2023-02-11T04:26:00.590Z,36.89
2023-02-11T04:28:31.587Z,42.21
2023-02-11T04:30:58.939Z,40.37
2023-02-11T04:33:26.191Z,42.44
2023-02-11T04:35:53.289Z,38.62
2023-02-11T04:38:20.396Z,38.90
2023-02-11T04:40:50.908Z,38.79
2023-02-11T04:43:18.399Z,38.13
2023-02-11T04:45:45.477Z,38.85
2023-02-11T04:48:12.585Z,40.02
2023-02-11T04:50:39.760Z,37.38
2023-02-11T04:53:06.841Z,34.92
2023-02-11T04:55:34.000Z,35.12
2023-02-11T04:58:01.125Z,34.40
2023-02-11T05:00:28.264Z,36.29
2023-02-11T05:02:55.360Z,36.00
2023-02-11T05:05:22.592Z,36.84
2023-02-11T05:07:49.697Z,37.50
2023-02-11T05:10:17.067Z,35.65
2023-02-11T05:12:44.210Z,37.62
2023-02-11T05:15:13.746Z,39.89
2023-02-11T05:17:40.902Z,37.30
2023-02-11T05:20:08.812Z,39.66
2023-02-11T05:22:35.850Z,37.57
2023-02-11T05:25:03.014Z,34.24
2023-02-11T05:27:30.152Z,35.36
2023-02-11T05:29:57.434Z,34.80
2023-02-11T05:32:27.750Z,36.14
2023-02-11T05:34:54.929Z,36.75
2023-02-11T05:37:22.080Z,35.21
2023-02-11T05:39:49.280Z,35.13
2023-02-11T05:42:16.401Z,37.27
2023-02-11T05:44:45.763Z,37.91
2023-02-11T05:47:12.790Z,41.67
2023-02-11T05:49:39.908Z,43.05
2023-02-11T05:52:06.986Z,39.16
2023-02-11T05:54:34.088Z,38.96
2023-02-11T05:57:01.226Z,39.01
2023-02-11T05:59:28.334Z,38.62
2023-02-11T06:01:55.924Z,38.43
2023-02-11T06:04:23.132Z,38.72
2023-02-11T06:06:50.383Z,38.27
2023-02-11T06:09:19.871Z,39.20
2023-02-11T06:11:49.455Z,37.63
2023-02-11T06:14:16.744Z,39.05
2023-02-11T06:16:43.951Z,38.50
2023-02-11T06:19:12.460Z,35.69
2023-02-11T06:21:44.218Z,37.78
2023-02-11T06:24:12.802Z,38.47
2023-02-11T06:26:42.704Z,37.45
2023-02-11T06:29:10.415Z,39.49
2023-02-11T06:31:39.357Z,37.16
2023-02-11T06:34:07.923Z,35.34
2023-02-11T06:36:35.696Z,40.50
2023-02-11T06:39:05.550Z,36.99
2023-02-11T06:41:33.052Z,39.38
2023-02-11T06:44:00.811Z,40.49
2023-02-11T06:46:28.065Z,40.02
2023-02-11T06:48:58.116Z,40.00
2023-02-11T06:51:28.628Z,39.18
2023-02-11T06:53:55.765Z,38.74
2023-02-11T06:56:27.733Z,40.37
2023-02-11T06:58:56.672Z,40.15
2023-02-11T07:01:25.793Z,38.74
2023-02-11T07:03:53.475Z,37.35
2023-02-11T07:06:25.748Z,38.09
2023-02-11T07:08:52.843Z,39.57
2023-02-11T07:11:24.912Z,37.82
2023-02-11T07:13:55.257Z,40.08
2023-02-11T07:16:25.072Z,41.58
2023-02-11T07:18:53.224Z,39.58
2023-02-11T07:21:24.418Z,40.04
2023-02-11T07:23:51.935Z,39.97
2023-02-11T07:26:23.353Z,37.48
2023-02-11T07:28:51.659Z,37.14
2023-02-11T07:31:28.311Z,41.42
2023-02-11T07:34:00.017Z,37.77
2023-02-11T07:36:29.675Z,40.13
2023-02-11T07:38:56.968Z,44.12
2023-02-11T07:41:25.680Z,45.47
2023-02-11T07:43:53.496Z,44.41
2023-02-11T07:46:28.374Z,45.76
2023-02-11T07:48:56.503Z,44.43
2023-02-11T07:51:29.921Z,43.94
2023-02-11T07:54:00.051Z,47.01
2023-02-11T07:56:28.719Z,46.46
2023-02-11T07:58:59.795Z,45.38
2023-02-11T08:01:28.760Z,43.73
2023-02-11T08:03:58.419Z,43.63
2023-02-11T08:06:29.788Z,43.16
2023-02-11T08:08:57.286Z,43.85
2023-02-11T08:11:28.236Z,44.32
2023-02-11T08:13:56.761Z,44.05
2023-02-11T08:16:32.167Z,44.91
2023-02-11T08:19:04.415Z,46.57
2023-02-11T08:21:31.581Z,46.57
2023-02-11T08:23:59.190Z,45.66
2023-02-11T08:26:29.795Z,46.52
2023-02-11T08:28:58.932Z,45.95
2023-02-11T08:31:41.680Z,46.28
2023-02-11T08:34:11.531Z,46.95
2023-02-11T08:36:42.833Z,47.69
2023-02-11T08:39:20.490Z,47.63
2023-02-11T08:41:54.007Z,48.19
2023-02-11T08:44:24.741Z,46.83
2023-02-11T08:46:52.412Z,47.85
2023-02-11T08:49:20.441Z,47.78
2023-02-11T08:51:48.403Z,48.92
2023-02-11T08:54:16.326Z,48.97
2023-02-11T08:56:43.744Z,48.80
2023-02-11T08:59:15.675Z,48.49
2023-02-11T09:01:44.428Z,48.23
2023-02-11T09:04:11.721Z,48.87
2023-02-11T09:06:38.865Z,50.57
2023-02-11T09:09:06.508Z,46.14
2023-02-11T09:11:37.427Z,48.51
2023-02-11T09:14:05.181Z,47.77
2023-02-11T09:16:36.615Z,48.88
2023-02-11T09:19:05.779Z,47.52
2023-02-11T09:21:33.300Z,46.25
2023-02-11T09:24:00.494Z,46.54
2023-02-11T09:26:31.930Z,46.81
2023-02-11T09:29:04.913Z,45.61
2023-02-11T09:31:34.162Z,49.20
2023-02-11T09:34:06.640Z,49.38
2023-02-11T09:36:38.650Z,48.57
2023-02-11T09:39:11.479Z,43.71
2023-02-11T09:42:15.705Z,46.65
2023-02-11T09:44:46.377Z,48.41
2023-02-11T09:47:34.247Z,49.62
2023-02-11T09:50:07.606Z,44.31
2023-02-11T09:52:56.021Z,41.21
2023-02-11T09:55:37.958Z,39.99
2023-02-11T09:58:15.502Z,41.56
2023-02-11T10:01:27.882Z,44.53
2023-02-11T10:04:02.935Z,44.24
2023-02-11T10:06:49.767Z,44.42
2023-02-11T10:09:48.224Z,41.11
2023-02-11T10:12:42.375Z,39.37
2023-02-11T10:15:52.003Z,43.80
2023-02-11T10:18:39.301Z,43.00
2023-02-11T10:21:47.917Z,45.30
2023-02-11T10:24:20.048Z,39.82
2023-02-11T10:26:47.605Z,41.50
2023-02-11T10:29:41.069Z,39.79
2023-02-11T10:32:27.796Z,40.37
2023-02-11T10:35:01.125Z,40.35
2023-02-11T10:37:28.488Z,41.03
2023-02-11T10:39:55.577Z,41.17
2023-02-11T10:42:22.706Z,39.31
2023-02-11T10:45:01.734Z,39.77
2023-02-11T10:47:37.612Z,42.66
2023-02-11T10:50:22.904Z,46.50
2023-02-11T10:52:50.198Z,47.00
2023-02-11T10:55:23.432Z,45.74
2023-02-11T10:57:58.698Z,45.48
2023-02-11T11:00:42.382Z,47.42
2023-02-11T11:03:25.707Z,48.41
2023-02-11T11:06:02.845Z,49.76
2023-02-11T11:08:46.697Z,49.85
2023-02-11T11:11:19.289Z,48.54
2023-02-11T11:14:03.843Z,47.12
2023-02-11T11:16:37.198Z,44.70
2023-02-11T11:19:07.288Z,45.49
2023-02-11T11:21:51.066Z,43.35
2023-02-11T11:24:55.382Z,41.64
2023-02-11T11:27:25.945Z,42.00
2023-02-11T11:29:56.464Z,41.30
2023-02-11T11:32:33.801Z,40.77
2023-02-11T11:35:06.392Z,40.26
2023-02-11T11:37:37.233Z,41.60
2023-02-11T11:40:25.618Z,39.71
2023-02-11T11:43:23.029Z,40.04
2023-02-11T11:45:57.800Z,38.98
2023-02-11T11:48:33.660Z,40.35
2023-02-11T11:51:06.185Z,42.88
2023-02-11T11:54:00.198Z,45.94
2023-02-11T11:56:34.318Z,46.28
2023-02-11T11:59:11.156Z,43.60
2023-02-11T12:02:20.499Z,45.95
2023-02-11T12:04:59.634Z,49.08
2023-02-11T12:07:45.500Z,48.88
2023-02-11T12:10:58.978Z,48.56
2023-02-11T12:13:39.556Z,48.06
2023-02-11T12:17:06.451Z,45.56
2023-02-11T12:19:52.479Z,44.83
2023-02-11T12:23:14.113Z,44.97
2023-02-11T12:26:00.870Z,47.74
2023-02-11T12:28:55.008Z,47.18
2023-02-11T12:31:50.709Z,45.79
2023-02-11T12:34:46.127Z,47.10
2023-02-11T12:37:41.442Z,46.21
2023-02-11T12:40:35.989Z,44.76
2023-02-11T12:43:17.380Z,45.37
2023-02-11T12:46:12.814Z,44.03
2023-02-11T12:49:45.667Z,45.01
2023-02-11T12:52:31.082Z,43.76
2023-02-11T12:55:11.804Z,44.75
2023-02-11T12:57:41.874Z,43.78
2023-02-11T13:00:38.004Z,44.61
2023-02-11T13:03:19.215Z,44.90
2023-02-11T13:05:58.753Z,46.74
2023-02-11T13:08:43.471Z,46.87
2023-02-11T13:11:37.937Z,46.04
2023-02-11T13:14:17.277Z,46.11
2023-02-11T13:16:51.004Z,46.89
2023-02-11T13:19:34.537Z,47.64
2023-02-11T13:22:20.132Z,46.71
2023-02-11T13:24:59.844Z,44.79
2023-02-11T13:27:33.262Z,42.28
2023-02-11T13:30:39.455Z,43.47
2023-02-11T13:33:20.884Z,39.20
2023-02-11T13:35:57.187Z,38.67
2023-02-11T13:38:33.566Z,40.41
2023-02-11T13:41:25.938Z,40.19
2023-02-11T13:44:11.416Z,39.58
2023-02-11T13:47:01.571Z,39.99
2023-02-11T13:49:50.774Z,39.78
2023-02-11T13:52:37.805Z,40.49
2023-02-11T13:55:24.600Z,40.53
2023-02-11T13:58:14.911Z,41.87
2023-02-11T14:00:50.476Z,43.10
2023-02-11T14:03:49.611Z,47.01
2023-02-11T14:07:05.544Z,41.49
2023-02-11T14:09:40.282Z,42.97
2023-02-11T14:12:31.388Z,45.67
2023-02-11T14:15:21.281Z,38.89
2023-02-11T14:17:52.546Z,43.67
2023-02-11T14:20:45.581Z,39.68
2023-02-11T14:23:27.291Z,40.98
2023-02-11T14:26:19.907Z,46.37
2023-02-11T14:29:17.607Z,47.22
2023-02-11T14:31:55.073Z,47.48
2023-02-11T14:34:31.011Z,44.48
2023-02-11T14:37:20.867Z,47.26
2023-02-11T14:39:58.461Z,46.58
2023-02-11T14:42:31.147Z,47.63
2023-02-11T14:45:07.733Z,47.94
2023-02-11T14:47:45.309Z,47.91
2023-02-11T14:50:26.371Z,48.07
2023-02-11T14:52:54.877Z,46.53
2023-02-11T14:55:38.125Z,46.55
2023-02-11T14:58:17.110Z,46.60
2023-02-11T15:01:09.309Z,45.58
2023-02-11T15:03:47.887Z,47.22
2023-02-11T15:06:19.166Z,100.00
2023-02-11T15:09:03.624Z,100.00
2023-02-11T15:11:39.651Z,100.00
2023-02-11T15:14:21.670Z,100.00
2023-02-11T15:16:50.891Z,100.00
2023-02-11T15:19:41.271Z,100.00
2023-02-11T15:22:33.123Z,100.00
2023-02-11T15:25:16.616Z,100.00
2023-02-11T15:27:48.226Z,100.00
2023-02-11T15:30:25.013Z,100.00
2023-02-11T15:32:59.955Z,100.00
2023-02-11T15:35:35.062Z,100.00
2023-02-11T15:38:02.700Z,100.00
2023-02-11T15:40:33.771Z,100.00
2023-02-11T15:43:06.005Z,100.00
2023-02-11T15:45:33.894Z,100.00
2023-02-11T15:48:26.999Z,100.00
2023-02-11T15:51:01.473Z,100.00
2023-02-11T15:53:43.113Z,100.00
2023-02-11T15:56:25.684Z,100.00
2023-02-11T15:58:56.154Z,100.00
2023-02-11T16:01:38.324Z,100.00
2023-02-11T16:04:06.339Z,100.00
2023-02-11T16:12:25.109Z,100.00
2023-02-11T16:14:59.544Z,100.00
2023-02-11T16:17:29.757Z,100.00
2023-02-11T16:19:57.465Z,100.00
2023-02-11T16:22:38.190Z,100.00
2023-02-11T16:25:06.315Z,100.00
2023-02-11T16:27:41.555Z,100.00
2023-02-11T16:30:35.011Z,100.00
2023-02-11T16:33:05.023Z,100.00
2023-02-11T16:35:32.851Z,100.00
2023-02-11T16:38:00.428Z,100.00
2023-02-11T16:40:30.756Z,100.00
2023-02-11T16:42:59.377Z,100.00
2023-02-11T16:45:27.493Z,100.00
2023-02-11T16:47:55.513Z,100.00
2023-02-11T16:50:27.889Z,100.00
2023-02-11T16:52:55.582Z,100.00
2023-02-11T16:55:26.330Z,100.00
2023-02-11T16:57:54.670Z,100.00
2023-02-11T17:00:23.583Z,100.00
2023-02-11T17:02:54.135Z,100.00
2023-02-11T17:05:25.485Z,100.00
2023-02-11T17:07:57.926Z,100.00
2023-02-11T17:10:27.457Z,100.00
2023-02-11T17:12:57.411Z,100.00
2023-02-11T17:15:24.809Z,100.00
2023-02-11T17:17:52.348Z,100.00
2023-02-11T17:20:20.842Z,100.00
2023-02-11T17:22:51.206Z,100.00
2023-02-11T17:25:18.962Z,100.00
2023-02-11T17:27:51.213Z,100.00
2023-02-11T17:30:23.302Z,100.00
2023-02-11T17:32:54.052Z,100.00
2023-02-11T17:35:24.068Z,100.00
2023-02-11T17:37:51.914Z,100.00
2023-02-11T17:40:19.784Z,100.00
2023-02-11T17:48:28.190Z,100.00
2023-02-11T17:50:58.846Z,100.00
2023-02-11T17:53:26.608Z,100.00
2023-02-11T17:55:56.777Z,100.00
2023-02-11T17:58:24.354Z,100.00
2023-02-11T18:00:52.203Z,100.00
2023-02-11T18:03:22.179Z,100.00
2023-02-11T18:05:51.309Z,100.00
2023-02-11T18:08:19.282Z,100.00
2023-02-11T18:10:46.600Z,100.00
2023-02-11T18:13:16.910Z,100.00
2023-02-11T18:15:56.067Z,100.00
2023-02-11T18:18:23.623Z,100.00
2023-02-11T18:21:08.792Z,100.00
2023-02-11T18:23:45.276Z,100.00
2023-02-11T18:26:19.242Z,100.00
2023-02-11T18:28:48.137Z,100.00
2023-02-11T18:31:22.182Z,100.00
2023-02-11T18:33:49.847Z,100.00
2023-02-11T18:36:17.494Z,100.00
2023-02-11T18:38:45.175Z,100.00
2023-02-11T18:41:14.846Z,100.00
2023-02-11T18:43:43.373Z,100.00
2023-02-11T18:46:14.748Z,100.00
2023-02-11T18:48:45.300Z,100.00
2023-02-11T18:51:18.624Z,100.00
2023-02-11T18:53:46.931Z,100.00
2023-02-11T18:56:20.929Z,100.00
2023-02-11T18:58:49.972Z,100.00
2023-02-11T19:01:29.825Z,100.00
2023-02-11T19:03:59.983Z,100.00
2023-02-11T19:06:30.519Z,100.00
2023-02-11T19:09:02.685Z,100.00
2023-02-11T19:11:49.160Z,100.00
2023-02-11T19:14:29.924Z,100.00
2023-02-11T19:17:01.731Z,100.00
2023-02-11T19:19:33.212Z,100.00
2023-02-11T19:22:02.362Z,100.00
2023-02-11T19:24:30.825Z,100.00
2023-02-11T19:27:01.474Z,100.00
2023-02-11T19:29:32.412Z,100.00
2023-02-11T19:32:00.510Z,100.00
2023-02-11T19:34:28.291Z,100.00
2023-02-11T19:36:56.853Z,100.00
2023-02-11T19:39:25.134Z,100.00
2023-02-11T19:41:53.644Z,100.00
2023-02-11T19:44:21.172Z,100.00
2023-02-11T19:46:50.786Z,100.00
2023-02-11T19:49:23.868Z,100.00
2023-02-11T19:51:52.981Z,100.00
2023-02-11T19:54:21.656Z,100.00
2023-02-11T19:56:52.965Z,100.00
2023-02-11T19:59:21.702Z,100.00
2023-02-11T20:01:49.894Z,100.00
2023-02-11T20:04:23.073Z,100.00
2023-02-11T20:06:51.070Z,100.00
2023-02-11T20:09:21.072Z,100.00
2023-02-11T20:14:34.255Z,100.00
2023-02-11T20:17:04.048Z,100.00
2023-02-11T20:19:31.482Z,100.00
2023-02-11T20:22:01.400Z,100.00
2023-02-11T20:24:30.031Z,100.00
2023-02-11T20:27:04.845Z,100.00
2023-02-11T20:29:45.996Z,100.00
2023-02-11T20:32:15.158Z,100.00
2023-02-11T20:34:42.938Z,100.00
2023-02-11T20:37:10.875Z,100.00
2023-02-11T20:39:41.961Z,100.00
2023-02-11T20:42:11.844Z,100.00
2023-02-11T20:44:43.195Z,100.00
2023-02-11T20:47:11.996Z,100.00
2023-02-11T20:49:39.740Z,100.00
2023-02-11T20:52:08.383Z,100.00
2023-02-11T20:54:41.490Z,100.00
2023-02-11T20:57:16.766Z,100.00
2023-02-11T20:59:48.074Z,100.00
2023-02-11T21:02:19.169Z,100.00
2023-02-11T21:04:49.989Z,100.00
2023-02-11T21:07:25.675Z,100.00
2023-02-11T21:10:01.841Z,100.00
2023-02-11T21:12:32.412Z,100.00
2023-02-11T21:15:08.041Z,100.00
2023-02-11T21:17:38.229Z,100.00
2023-02-11T21:20:09.089Z,100.00
2023-02-11T21:22:36.825Z,100.00
2023-02-11T21:25:09.184Z,100.00
2023-02-11T21:27:52.445Z,100.00
2023-02-11T21:30:32.291Z,100.00
2023-02-11T21:33:02.537Z,100.00
2023-02-11T21:35:41.802Z,100.00
2023-02-11T21:38:24.284Z,100.00
2023-02-11T21:40:52.734Z,100.00
2023-02-11T21:43:21.387Z,100.00
2023-02-11T21:46:01.125Z,100.00
2023-02-11T21:48:41.104Z,100.00
2023-02-11T21:54:26.020Z,100.00
2023-02-11T21:57:26.575Z,100.00
2023-02-11T22:00:35.484Z,100.00
2023-02-11T22:03:49.627Z,100.00
2023-02-11T22:06:34.617Z,100.00
2023-02-11T22:09:24.268Z,100.00
2023-02-11T22:12:00.478Z,100.00
2023-02-11T22:14:46.900Z,100.00
2023-02-11T22:20:28.535Z,100.00
2023-02-11T22:23:05.332Z,100.00
2023-02-11T22:25:46.005Z,100.00
2023-02-11T22:28:16.689Z,100.00
2023-02-11T22:30:44.548Z,100.00
2023-02-11T22:33:22.018Z,100.00
2023-02-11T22:35:55.839Z,100.00
2023-02-11T22:38:34.689Z,100.00
2023-02-11T22:41:16.353Z,100.00
2023-02-11T22:43:44.753Z,100.00
2023-02-11T22:46:16.800Z,100.00
2023-02-11T22:48:48.182Z,100.00
2023-02-11T22:51:28.541Z,100.00
2023-02-11T22:54:05.752Z,100.00
2023-02-11T22:56:36.483Z,100.00
2023-02-11T22:59:07.408Z,100.00
2023-02-11T23:01:35.894Z,100.00
2023-02-11T23:04:07.679Z,100.00
2023-02-11T23:06:37.795Z,100.00
2023-02-11T23:09:08.030Z,100.00
2023-02-11T23:11:36.630Z,100.00
2023-02-11T23:14:04.673Z,100.00
2023-02-11T23:16:34.521Z,100.00
2023-02-11T23:19:07.442Z,100.00
2023-02-11T23:21:48.105Z,100.00
2023-02-11T23:24:18.826Z,100.00
2023-02-11T23:26:51.425Z,100.00
2023-02-11T23:29:19.376Z,100.00
2023-02-11T23:31:47.341Z,100.00
2023-02-11T23:34:17.398Z,100.00
2023-02-11T23:36:46.312Z,100.00
2023-02-11T23:39:16.010Z,100.00
2023-02-11T23:41:44.012Z,100.00
2023-02-11T23:44:11.954Z,100.00
2023-02-11T23:46:39.768Z,100.00
2023-02-11T23:49:07.833Z,100.00
2023-02-11T23:51:35.220Z,100.00
2023-02-11T23:54:03.608Z,100.00
2023-02-11T23:56:31.119Z,100.00
2023-02-11T23:58:59.644Z,100.00
